sensor_id;sensor_type;location;lat;lon;timestamp;pressure;altitude;pressure_sealevel;temperature;humidity
20444;BME280;10381;53.730;10.010;2023-04-26T00:01:16;100982.03;;;2.87;100.00
20444;BME280;10381;53.730;10.010;2023-04-26T00:05:17;100986.25;;;2.90;100.00
20444;BME280;10381;53.730;10.010;2023-04-26T00:09:18;100985.13;;;2.78;100.00
20444;BME280;10381;53.730;10.010;2023-04-26T00:13:18;100985.56;;;2.53;100.00
20444;BME280;10381;53.730;10.010;2023-04-26T00:17:19;100989.25;;;2.49;100.00
20444;BME280;10381;53.730;10.010;2023-04-26T00:21:19;100995.81;;;2.58;100.00
20444;BME280;10381;53.730;10.010;2023-04-26T00:25:19;100997.03;;;2.84;100.00
20444;BME280;10381;53.730;10.010;2023-04-26T00:29:20;100990.47;;;2.92;100.00
20444;BME280;10381;53.730;10.010;2023-04-26T00:33:20;100995.13;;;2.87;100.00
20444;BME280;10381;53.730;10.010;2023-04-26T00:37:21;100992.13;;;2.77;100.00
20444;BME280;10381;53.730;10.010;2023-04-26T00:41:22;100987.75;;;2.78;100.00
20444;BME280;10381;53.730;10.010;2023-04-26T00:45:23;100985.38;;;2.73;100.00
20444;BME280;10381;53.730;10.010;2023-04-26T00:49:24;100986.19;;;2.58;100.00
20444;BME280;10381;53.730;10.010;2023-04-26T00:53:28;100999.22;;;2.75;100.00
20444;BME280;10381;53.730;10.010;2023-04-26T00:57:30;100997.66;;;2.55;100.00
20444;BME280;10381;53.730;10.010;2023-04-26T01:01:30;100992.66;;;2.33;100.00
20444;BME280;10381;53.730;10.010;2023-04-26T01:05:31;100998.50;;;2.21;100.00
20444;BME280;10381;53.730;10.010;2023-04-26T01:09:32;100999.81;;;2.12;100.00
20444;BME280;10381;53.730;10.010;2023-04-26T01:13:32;101005.50;;;2.03;100.00
20444;BME280;10381;53.730;10.010;2023-04-26T01:17:33;101007.34;;;2.01;100.00
20444;BME280;10381;53.730;10.010;2023-04-26T01:21:33;101019.84;;;1.95;100.00
20444;BME280;10381;53.730;10.010;2023-04-26T01:25:34;101016.81;;;1.85;100.00
20444;BME280;10381;53.730;10.010;2023-04-26T01:29:34;101020.97;;;1.72;100.00
20444;BME280;10381;53.730;10.010;2023-04-26T01:33:35;101033.53;;;1.63;100.00
20444;BME280;10381;53.730;10.010;2023-04-26T01:37:35;101029.59;;;1.74;100.00
20444;BME280;10381;53.730;10.010;2023-04-26T01:41:35;101032.72;;;1.80;100.00
20444;BME280;10381;53.730;10.010;2023-04-26T01:45:36;101034.84;;;1.91;100.00
20444;BME280;10381;53.730;10.010;2023-04-26T01:49:36;101041.06;;;1.88;100.00
20444;BME280;10381;53.730;10.010;2023-04-26T01:53:36;101042.28;;;1.99;100.00
20444;BME280;10381;53.730;10.010;2023-04-26T01:57:36;101035.28;;;1.99;100.00
20444;BME280;10381;53.730;10.010;2023-04-26T02:01:37;101041.91;;;2.06;100.00
20444;BME280;10381;53.730;10.010;2023-04-26T02:05:37;101043.63;;;2.07;100.00
20444;BME280;10381;53.730;10.010;2023-04-26T02:09:37;101057.16;;;2.16;100.00
20444;BME280;10381;53.730;10.010;2023-04-26T02:13:38;101047.81;;;2.29;100.00
20444;BME280;10381;53.730;10.010;2023-04-26T02:17:38;101041.97;;;2.24;100.00
20444;BME280;10381;53.730;10.010;2023-04-26T02:21:53;101037.63;;;2.05;100.00
20444;BME280;10381;53.730;10.010;2023-04-26T02:25:53;101038.41;;;2.07;100.00
20444;BME280;10381;53.730;10.010;2023-04-26T02:29:54;101041.31;;;2.01;100.00
20444;BME280;10381;53.730;10.010;2023-04-26T02:33:54;101051.41;;;1.90;100.00
20444;BME280;10381;53.730;10.010;2023-04-26T02:37:55;101052.19;;;1.92;100.00
20444;BME280;10381;53.730;10.010;2023-04-26T02:41:55;101042.84;;;1.88;100.00
20444;BME280;10381;53.730;10.010;2023-04-26T02:45:56;101048.06;;;1.88;100.00
20444;BME280;10381;53.730;10.010;2023-04-26T02:50:00;101043.72;;;1.87;100.00
20444;BME280;10381;53.730;10.010;2023-04-26T02:54:00;101048.69;;;1.93;100.00
20444;BME280;10381;53.730;10.010;2023-04-26T02:58:02;101046.63;;;2.00;100.00
20444;BME280;10381;53.730;10.010;2023-04-26T03:02:02;101049.22;;;2.00;100.00
20444;BME280;10381;53.730;10.010;2023-04-26T03:06:02;101052.53;;;2.03;100.00
20444;BME280;10381;53.730;10.010;2023-04-26T03:10:03;101046.16;;;2.09;100.00
20444;BME280;10381;53.730;10.010;2023-04-26T03:14:04;101058.31;;;2.10;100.00
20444;BME280;10381;53.730;10.010;2023-04-26T03:18:04;101067.63;;;2.16;100.00
20444;BME280;10381;53.730;10.010;2023-04-26T03:22:05;101075.78;;;2.09;100.00
20444;BME280;10381;53.730;10.010;2023-04-26T03:26:05;101071.28;;;2.11;100.00
20444;BME280;10381;53.730;10.010;2023-04-26T03:30:06;101062.69;;;2.09;100.00
20444;BME280;10381;53.730;10.010;2023-04-26T03:34:07;101058.38;;;2.08;100.00
20444;BME280;10381;53.730;10.010;2023-04-26T03:38:07;101051.47;;;2.07;100.00
20444;BME280;10381;53.730;10.010;2023-04-26T03:42:08;101051.84;;;2.00;100.00
20444;BME280;10381;53.730;10.010;2023-04-26T03:46:08;101051.56;;;1.87;100.00
20444;BME280;10381;53.730;10.010;2023-04-26T03:50:08;101057.94;;;1.81;100.00
20444;BME280;10381;53.730;10.010;2023-04-26T03:54:09;101074.94;;;1.90;100.00
20444;BME280;10381;53.730;10.010;2023-04-26T03:58:10;101102.00;;;1.89;100.00
20444;BME280;10381;53.730;10.010;2023-04-26T04:02:10;101104.75;;;1.86;100.00
20444;BME280;10381;53.730;10.010;2023-04-26T04:06:10;101083.34;;;1.78;100.00
20444;BME280;10381;53.730;10.010;2023-04-26T04:10:11;101085.69;;;1.84;100.00
20444;BME280;10381;53.730;10.010;2023-04-26T04:14:12;101085.84;;;1.81;100.00
20444;BME280;10381;53.730;10.010;2023-04-26T04:18:12;101092.81;;;1.80;100.00
20444;BME280;10381;53.730;10.010;2023-04-26T04:22:12;101094.72;;;1.77;100.00
20444;BME280;10381;53.730;10.010;2023-04-26T04:26:12;101093.22;;;1.90;100.00
20444;BME280;10381;53.730;10.010;2023-04-26T04:30:13;101087.72;;;1.96;100.00
20444;BME280;10381;53.730;10.010;2023-04-26T04:34:13;101104.53;;;2.09;100.00
20444;BME280;10381;53.730;10.010;2023-04-26T04:38:15;101126.53;;;2.04;100.00
20444;BME280;10381;53.730;10.010;2023-04-26T04:42:16;101112.25;;;2.11;100.00
20444;BME280;10381;53.730;10.010;2023-04-26T04:46:17;101108.25;;;2.04;100.00
20444;BME280;10381;53.730;10.010;2023-04-26T04:50:17;101098.19;;;2.13;100.00
20444;BME280;10381;53.730;10.010;2023-04-26T04:54:18;101100.31;;;2.24;100.00
20444;BME280;10381;53.730;10.010;2023-04-26T04:58:18;101088.03;;;2.44;100.00
20444;BME280;10381;53.730;10.010;2023-04-26T05:02:19;101099.50;;;2.41;100.00
20444;BME280;10381;53.730;10.010;2023-04-26T05:06:19;101091.78;;;2.38;100.00
20444;BME280;10381;53.730;10.010;2023-04-26T05:10:20;101097.56;;;2.45;100.00
20444;BME280;10381;53.730;10.010;2023-04-26T05:14:21;101091.72;;;2.40;100.00
20444;BME280;10381;53.730;10.010;2023-04-26T05:18:21;101097.81;;;2.21;100.00
20444;BME280;10381;53.730;10.010;2023-04-26T05:22:21;101098.28;;;2.12;100.00
20444;BME280;10381;53.730;10.010;2023-04-26T05:26:23;101091.34;;;2.11;100.00
20444;BME280;10381;53.730;10.010;2023-04-26T05:30:23;101097.50;;;2.46;100.00
20444;BME280;10381;53.730;10.010;2023-04-26T05:34:23;101103.09;;;2.56;100.00
20444;BME280;10381;53.730;10.010;2023-04-26T05:38:24;101117.50;;;2.82;100.00
20444;BME280;10381;53.730;10.010;2023-04-26T05:42:24;101120.53;;;3.08;100.00
20444;BME280;10381;53.730;10.010;2023-04-26T05:46:25;101117.59;;;3.14;100.00
20444;BME280;10381;53.730;10.010;2023-04-26T05:50:25;101116.53;;;3.01;100.00
20444;BME280;10381;53.730;10.010;2023-04-26T05:54:26;101126.78;;;2.88;100.00
20444;BME280;10381;53.730;10.010;2023-04-26T05:58:26;101130.72;;;2.96;100.00
20444;BME280;10381;53.730;10.010;2023-04-26T06:02:27;101130.69;;;3.14;100.00
20444;BME280;10381;53.730;10.010;2023-04-26T06:06:27;101137.44;;;3.35;100.00
20444;BME280;10381;53.730;10.010;2023-04-26T06:10:27;101132.13;;;3.37;100.00
20444;BME280;10381;53.730;10.010;2023-04-26T06:14:28;101125.75;;;3.25;100.00
20444;BME280;10381;53.730;10.010;2023-04-26T06:18:28;101118.75;;;3.26;100.00
20444;BME280;10381;53.730;10.010;2023-04-26T06:22:29;101123.69;;;3.48;100.00
20444;BME280;10381;53.730;10.010;2023-04-26T06:26:29;101118.38;;;3.65;100.00
20444;BME280;10381;53.730;10.010;2023-04-26T06:30:30;101120.50;;;3.74;100.00
20444;BME280;10381;53.730;10.010;2023-04-26T06:34:30;101110.44;;;3.98;100.00
20444;BME280;10381;53.730;10.010;2023-04-26T06:38:31;101102.66;;;3.97;100.00
20444;BME280;10381;53.730;10.010;2023-04-26T06:42:31;101106.13;;;4.13;100.00
20444;BME280;10381;53.730;10.010;2023-04-26T06:46:31;101090.56;;;4.26;100.00
20444;BME280;10381;53.730;10.010;2023-04-26T06:50:32;101089.16;;;4.35;100.00
20444;BME280;10381;53.730;10.010;2023-04-26T06:54:32;101079.41;;;4.53;100.00
20444;BME280;10381;53.730;10.010;2023-04-26T06:58:33;101082.72;;;4.70;100.00
20444;BME280;10381;53.730;10.010;2023-04-26T07:02:33;101076.28;;;4.90;100.00
20444;BME280;10381;53.730;10.010;2023-04-26T07:06:33;101065.41;;;5.11;100.00
20444;BME280;10381;53.730;10.010;2023-04-26T07:10:33;101060.53;;;5.33;100.00
20444;BME280;10381;53.730;10.010;2023-04-26T07:14:35;101074.97;;;5.41;100.00
20444;BME280;10381;53.730;10.010;2023-04-26T07:18:38;101072.59;;;5.50;100.00
20444;BME280;10381;53.730;10.010;2023-04-26T07:22:39;101073.38;;;5.94;100.00
20444;BME280;10381;53.730;10.010;2023-04-26T07:26:39;101069.16;;;6.46;100.00
20444;BME280;10381;53.730;10.010;2023-04-26T07:30:40;101067.94;;;6.90;100.00
20444;BME280;10381;53.730;10.010;2023-04-26T07:34:41;101061.63;;;6.67;100.00
20444;BME280;10381;53.730;10.010;2023-04-26T07:38:41;101061.00;;;6.23;100.00
20444;BME280;10381;53.730;10.010;2023-04-26T07:42:41;101074.34;;;6.20;100.00
20444;BME280;10381;53.730;10.010;2023-04-26T07:46:42;101078.09;;;6.43;100.00
20444;BME280;10381;53.730;10.010;2023-04-26T07:50:42;101080.66;;;6.57;100.00
20444;BME280;10381;53.730;10.010;2023-04-26T07:54:44;101084.44;;;7.43;100.00
20444;BME280;10381;53.730;10.010;2023-04-26T07:58:45;101089.31;;;6.72;100.00
20444;BME280;10381;53.730;10.010;2023-04-26T08:02:45;101096.22;;;5.79;100.00
20444;BME280;10381;53.730;10.010;2023-04-26T08:06:46;101095.50;;;5.63;100.00
20444;BME280;10381;53.730;10.010;2023-04-26T08:10:47;101099.16;;;5.60;100.00
20444;BME280;10381;53.730;10.010;2023-04-26T08:14:47;101099.78;;;5.92;100.00
20444;BME280;10381;53.730;10.010;2023-04-26T08:18:48;101107.63;;;6.21;100.00
20444;BME280;10381;53.730;10.010;2023-04-26T08:22:48;101108.94;;;6.94;100.00
20444;BME280;10381;53.730;10.010;2023-04-26T08:26:49;101102.72;;;7.08;100.00
20444;BME280;10381;53.730;10.010;2023-04-26T08:30:49;101109.88;;;7.44;100.00
20444;BME280;10381;53.730;10.010;2023-04-26T08:34:49;101108.53;;;7.13;100.00
20444;BME280;10381;53.730;10.010;2023-04-26T08:38:50;101114.88;;;7.73;100.00
20444;BME280;10381;53.730;10.010;2023-04-26T08:42:50;101103.34;;;6.98;100.00
20444;BME280;10381;53.730;10.010;2023-04-26T08:47:17;101113.75;;;6.87;100.00
20444;BME280;10381;53.730;10.010;2023-04-26T08:51:18;101107.03;;;6.30;100.00
20444;BME280;10381;53.730;10.010;2023-04-26T08:55:19;101126.63;;;6.12;100.00
20444;BME280;10381;53.730;10.010;2023-04-26T08:59:21;101148.19;;;6.17;100.00
20444;BME280;10381;53.730;10.010;2023-04-26T09:03:22;101139.72;;;6.26;100.00
20444;BME280;10381;53.730;10.010;2023-04-26T09:07:34;101136.75;;;6.45;100.00
20444;BME280;10381;53.730;10.010;2023-04-26T09:11:58;101132.41;;;6.17;100.00
20444;BME280;10381;53.730;10.010;2023-04-26T09:15:59;101137.38;;;6.89;100.00
20444;BME280;10381;53.730;10.010;2023-04-26T09:20:00;101139.56;;;6.69;100.00
20444;BME280;10381;53.730;10.010;2023-04-26T09:24:00;101129.47;;;6.49;100.00
20444;BME280;10381;53.730;10.010;2023-04-26T09:28:18;101134.63;;;6.37;100.00
20444;BME280;10381;53.730;10.010;2023-04-26T09:32:18;101125.88;;;6.90;100.00
20444;BME280;10381;53.730;10.010;2023-04-26T09:36:18;101128.31;;;7.06;100.00
20444;BME280;10381;53.730;10.010;2023-04-26T09:40:22;101133.69;;;7.42;100.00
20444;BME280;10381;53.730;10.010;2023-04-26T09:44:23;101129.84;;;7.85;100.00
20444;BME280;10381;53.730;10.010;2023-04-26T09:48:33;101117.28;;;8.61;100.00
20444;BME280;10381;53.730;10.010;2023-04-26T09:52:41;101134.28;;;7.84;100.00
20444;BME280;10381;53.730;10.010;2023-04-26T09:56:58;101126.28;;;7.73;100.00
20444;BME280;10381;53.730;10.010;2023-04-26T10:00:58;101131.13;;;8.40;100.00
20444;BME280;10381;53.730;10.010;2023-04-26T10:04:59;101128.38;;;8.77;100.00
20444;BME280;10381;53.730;10.010;2023-04-26T10:09:01;101132.91;;;8.64;100.00
20444;BME280;10381;53.730;10.010;2023-04-26T10:13:07;101134.84;;;8.73;100.00
20444;BME280;10381;53.730;10.010;2023-04-26T10:17:07;101134.03;;;8.48;100.00
20444;BME280;10381;53.730;10.010;2023-04-26T10:21:29;101157.44;;;8.29;100.00
20444;BME280;10381;53.730;10.010;2023-04-26T10:25:37;101157.97;;;7.97;100.00
20444;BME280;10381;53.730;10.010;2023-04-26T10:34:19;101156.50;;;8.78;100.00
20444;BME280;10381;53.730;10.010;2023-04-26T10:38:19;101158.06;;;8.08;100.00
20444;BME280;10381;53.730;10.010;2023-04-26T10:42:27;101160.47;;;7.49;100.00
20444;BME280;10381;53.730;10.010;2023-04-26T10:46:38;101152.34;;;7.01;100.00
20444;BME280;10381;53.730;10.010;2023-04-26T10:54:58;101142.78;;;8.25;100.00
20444;BME280;10381;53.730;10.010;2023-04-26T10:59:09;101149.03;;;8.48;100.00
20444;BME280;10381;53.730;10.010;2023-04-26T11:03:10;101152.09;;;8.66;100.00
20444;BME280;10381;53.730;10.010;2023-04-26T11:07:13;101155.38;;;7.72;100.00
20444;BME280;10381;53.730;10.010;2023-04-26T11:11:15;101161.56;;;8.33;100.00
20444;BME280;10381;53.730;10.010;2023-04-26T11:15:16;101150.69;;;8.25;100.00
20444;BME280;10381;53.730;10.010;2023-04-26T11:19:16;101146.06;;;8.52;100.00
20444;BME280;10381;53.730;10.010;2023-04-26T11:23:17;101149.47;;;8.90;100.00
20444;BME280;10381;53.730;10.010;2023-04-26T11:27:18;101148.28;;;9.05;100.00
20444;BME280;10381;53.730;10.010;2023-04-26T11:31:19;101144.72;;;9.51;100.00
20444;BME280;10381;53.730;10.010;2023-04-26T11:35:23;101146.78;;;9.48;99.52
20444;BME280;10381;53.730;10.010;2023-04-26T11:39:24;101143.94;;;8.93;100.00
20444;BME280;10381;53.730;10.010;2023-04-26T11:43:29;101144.13;;;8.79;100.00
20444;BME280;10381;53.730;10.010;2023-04-26T11:47:30;101151.28;;;8.41;100.00
20444;BME280;10381;53.730;10.010;2023-04-26T11:51:31;101151.72;;;8.94;100.00
20444;BME280;10381;53.730;10.010;2023-04-26T11:55:32;101147.06;;;8.98;100.00
20444;BME280;10381;53.730;10.010;2023-04-26T11:59:35;101144.06;;;9.03;100.00
20444;BME280;10381;53.730;10.010;2023-04-26T12:03:36;101151.81;;;9.85;98.73
20444;BME280;10381;53.730;10.010;2023-04-26T12:07:36;101172.38;;;9.92;83.00
20444;BME280;10381;53.730;10.010;2023-04-26T12:11:40;101175.13;;;10.02;79.65
20444;BME280;10381;53.730;10.010;2023-04-26T12:15:40;101158.19;;;9.82;91.51
20444;BME280;10381;53.730;10.010;2023-04-26T12:19:40;101168.16;;;10.01;100.00
20444;BME280;10381;53.730;10.010;2023-04-26T12:23:40;101157.00;;;9.86;100.00
20444;BME280;10381;53.730;10.010;2023-04-26T12:27:41;101174.59;;;10.19;89.06
20444;BME280;10381;53.730;10.010;2023-04-26T12:31:41;101172.59;;;10.00;80.79
20444;BME280;10381;53.730;10.010;2023-04-26T12:35:42;101176.22;;;9.43;80.52
20444;BME280;10381;53.730;10.010;2023-04-26T12:39:42;101173.22;;;9.59;81.37
20444;BME280;10381;53.730;10.010;2023-04-26T12:43:43;101172.38;;;10.03;85.25
20444;BME280;10381;53.730;10.010;2023-04-26T12:47:46;101179.13;;;9.63;81.87
20444;BME280;10381;53.730;10.010;2023-04-26T12:51:47;101176.56;;;9.84;77.57
20444;BME280;10381;53.730;10.010;2023-04-26T12:55:47;101190.47;;;9.18;79.30
20444;BME280;10381;53.730;10.010;2023-04-26T12:59:48;101198.31;;;9.20;74.34
20444;BME280;10381;53.730;10.010;2023-04-26T13:03:48;101184.28;;;9.75;79.59
20444;BME280;10381;53.730;10.010;2023-04-26T13:07:48;101184.41;;;9.63;79.98
20444;BME280;10381;53.730;10.010;2023-04-26T13:11:49;101186.22;;;9.73;78.88
20444;BME280;10381;53.730;10.010;2023-04-26T13:15:49;101181.66;;;9.87;76.62
20444;BME280;10381;53.730;10.010;2023-04-26T13:19:50;101198.34;;;8.95;81.12
20444;BME280;10381;53.730;10.010;2023-04-26T13:23:51;101211.28;;;7.89;100.00
20444;BME280;10381;53.730;10.010;2023-04-26T13:27:52;101203.72;;;7.34;100.00
20444;BME280;10381;53.730;10.010;2023-04-26T13:31:53;101201.13;;;7.07;100.00
20444;BME280;10381;53.730;10.010;2023-04-26T13:35:54;101216.13;;;7.83;100.00
20444;BME280;10381;53.730;10.010;2023-04-26T13:39:55;101217.94;;;8.45;100.00
20444;BME280;10381;53.730;10.010;2023-04-26T13:43:55;101220.25;;;8.49;100.00
20444;BME280;10381;53.730;10.010;2023-04-26T13:47:56;101218.81;;;8.20;100.00
20444;BME280;10381;53.730;10.010;2023-04-26T13:51:56;101237.63;;;8.02;100.00
20444;BME280;10381;53.730;10.010;2023-04-26T13:55:56;101229.22;;;8.34;100.00
20444;BME280;10381;53.730;10.010;2023-04-26T13:59:57;101226.19;;;8.27;100.00
20444;BME280;10381;53.730;10.010;2023-04-26T14:03:57;101240.44;;;9.10;100.00
20444;BME280;10381;53.730;10.010;2023-04-26T14:07:57;101242.19;;;8.98;100.00
20444;BME280;10381;53.730;10.010;2023-04-26T14:11:58;101252.88;;;8.36;100.00
20444;BME280;10381;53.730;10.010;2023-04-26T14:15:59;101242.91;;;9.24;100.00
20444;BME280;10381;53.730;10.010;2023-04-26T14:19:59;101238.16;;;9.63;100.00
20444;BME280;10381;53.730;10.010;2023-04-26T14:24:00;101240.56;;;8.84;100.00
20444;BME280;10381;53.730;10.010;2023-04-26T14:28:00;101237.50;;;8.17;100.00
20444;BME280;10381;53.730;10.010;2023-04-26T14:32:01;101249.72;;;7.55;100.00
20444;BME280;10381;53.730;10.010;2023-04-26T14:36:02;101237.81;;;6.70;100.00
20444;BME280;10381;53.730;10.010;2023-04-26T14:40:03;101242.91;;;7.13;100.00
20444;BME280;10381;53.730;10.010;2023-04-26T14:44:04;101247.06;;;8.43;100.00
20444;BME280;10381;53.730;10.010;2023-04-26T14:48:04;101253.63;;;9.34;98.09
20444;BME280;10381;53.730;10.010;2023-04-26T14:52:05;101250.09;;;9.22;94.62
20444;BME280;10381;53.730;10.010;2023-04-26T14:56:06;101243.16;;;8.73;99.35
20444;BME280;10381;53.730;10.010;2023-04-26T15:00:07;101257.81;;;7.90;100.00
20444;BME280;10381;53.730;10.010;2023-04-26T15:04:08;101249.38;;;7.73;100.00
20444;BME280;10381;53.730;10.010;2023-04-26T15:08:08;101256.13;;;7.77;100.00
20444;BME280;10381;53.730;10.010;2023-04-26T15:12:08;101262.00;;;8.19;100.00
20444;BME280;10381;53.730;10.010;2023-04-26T15:16:09;101266.06;;;8.48;100.00
20444;BME280;10381;53.730;10.010;2023-04-26T15:20:10;101258.56;;;8.79;100.00
20444;BME280;10381;53.730;10.010;2023-04-26T15:24:10;101258.66;;;9.02;95.89
20444;BME280;10381;53.730;10.010;2023-04-26T15:28:10;101259.53;;;9.13;95.17
20444;BME280;10381;53.730;10.010;2023-04-26T15:32:11;101264.66;;;9.74;82.09
20444;BME280;10381;53.730;10.010;2023-04-26T15:36:11;101270.91;;;9.96;80.41
20444;BME280;10381;53.730;10.010;2023-04-26T15:40:11;101256.44;;;9.55;80.76
20444;BME280;10381;53.730;10.010;2023-04-26T15:44:12;101253.38;;;8.53;97.15
20444;BME280;10381;53.730;10.010;2023-04-26T15:48:12;101255.81;;;7.94;98.84
20444;BME280;10381;53.730;10.010;2023-04-26T15:52:12;101258.03;;;7.87;100.00
20444;BME280;10381;53.730;10.010;2023-04-26T15:56:14;101253.50;;;7.64;100.00
20444;BME280;10381;53.730;10.010;2023-04-26T16:00:15;101258.22;;;7.72;100.00
20444;BME280;10381;53.730;10.010;2023-04-26T16:04:16;101260.47;;;7.78;100.00
20444;BME280;10381;53.730;10.010;2023-04-26T16:08:16;101261.94;;;7.82;100.00
20444;BME280;10381;53.730;10.010;2023-04-26T16:12:16;101261.09;;;7.94;100.00
20444;BME280;10381;53.730;10.010;2023-04-26T16:16:19;101275.69;;;8.49;100.00
20444;BME280;10381;53.730;10.010;2023-04-26T16:20:20;101272.25;;;8.23;100.00
20444;BME280;10381;53.730;10.010;2023-04-26T16:24:20;101280.88;;;8.99;100.00
20444;BME280;10381;53.730;10.010;2023-04-26T16:28:20;101266.13;;;8.23;100.00
20444;BME280;10381;53.730;10.010;2023-04-26T16:32:21;101258.34;;;7.57;100.00
20444;BME280;10381;53.730;10.010;2023-04-26T16:36:21;101259.16;;;7.19;100.00
20444;BME280;10381;53.730;10.010;2023-04-26T16:40:21;101275.31;;;7.00;100.00
20444;BME280;10381;53.730;10.010;2023-04-26T16:44:23;101269.88;;;7.16;100.00
20444;BME280;10381;53.730;10.010;2023-04-26T16:48:26;101278.56;;;7.31;100.00
20444;BME280;10381;53.730;10.010;2023-04-26T16:52:26;101277.00;;;7.54;100.00
20444;BME280;10381;53.730;10.010;2023-04-26T16:56:28;101279.41;;;8.21;100.00
20444;BME280;10381;53.730;10.010;2023-04-26T17:00:28;101276.91;;;8.07;100.00
20444;BME280;10381;53.730;10.010;2023-04-26T17:04:29;101280.25;;;7.45;100.00
20444;BME280;10381;53.730;10.010;2023-04-26T17:08:29;101280.69;;;6.99;100.00
20444;BME280;10381;53.730;10.010;2023-04-26T17:12:30;101274.81;;;7.08;100.00
20444;BME280;10381;53.730;10.010;2023-04-26T17:16:30;101274.66;;;7.37;100.00
20444;BME280;10381;53.730;10.010;2023-04-26T17:20:31;101279.84;;;6.98;100.00
20444;BME280;10381;53.730;10.010;2023-04-26T17:24:32;101282.78;;;6.94;100.00
20444;BME280;10381;53.730;10.010;2023-04-26T17:28:32;101281.06;;;6.66;100.00
20444;BME280;10381;53.730;10.010;2023-04-26T17:32:32;101283.94;;;6.48;100.00
20444;BME280;10381;53.730;10.010;2023-04-26T17:36:33;101295.66;;;6.71;100.00
20444;BME280;10381;53.730;10.010;2023-04-26T17:40:33;101301.88;;;6.83;100.00
20444;BME280;10381;53.730;10.010;2023-04-26T17:44:34;101299.44;;;6.53;100.00
20444;BME280;10381;53.730;10.010;2023-04-26T17:48:34;101296.47;;;6.30;100.00
20444;BME280;10381;53.730;10.010;2023-04-26T17:52:35;101299.00;;;6.03;100.00
20444;BME280;10381;53.730;10.010;2023-04-26T17:56:35;101298.22;;;5.87;100.00
20444;BME280;10381;53.730;10.010;2023-04-26T18:00:36;101305.69;;;5.94;100.00
20444;BME280;10381;53.730;10.010;2023-04-26T18:04:36;101307.56;;;6.21;100.00
20444;BME280;10381;53.730;10.010;2023-04-26T18:08:36;101299.28;;;6.13;100.00
20444;BME280;10381;53.730;10.010;2023-04-26T18:12:37;101298.88;;;5.76;100.00
20444;BME280;10381;53.730;10.010;2023-04-26T18:16:37;101299.19;;;5.55;100.00
20444;BME280;10381;53.730;10.010;2023-04-26T18:20:37;101307.06;;;5.41;100.00
20444;BME280;10381;53.730;10.010;2023-04-26T18:24:38;101306.84;;;5.30;100.00
20444;BME280;10381;53.730;10.010;2023-04-26T18:28:38;101310.50;;;5.11;100.00
20444;BME280;10381;53.730;10.010;2023-04-26T18:32:38;101310.13;;;5.03;100.00
20444;BME280;10381;53.730;10.010;2023-04-26T18:36:38;101317.41;;;4.98;100.00
20444;BME280;10381;53.730;10.010;2023-04-26T18:40:43;101321.56;;;4.86;100.00
20444;BME280;10381;53.730;10.010;2023-04-26T18:44:43;101328.00;;;4.65;100.00
20444;BME280;10381;53.730;10.010;2023-04-26T18:48:43;101324.28;;;4.53;100.00
20444;BME280;10381;53.730;10.010;2023-04-26T18:52:44;101327.56;;;4.41;100.00
20444;BME280;10381;53.730;10.010;2023-04-26T18:56:44;101333.19;;;4.17;100.00
20444;BME280;10381;53.730;10.010;2023-04-26T19:00:45;101331.03;;;4.08;100.00
20444;BME280;10381;53.730;10.010;2023-04-26T19:04:45;101331.50;;;3.99;100.00
20444;BME280;10381;53.730;10.010;2023-04-26T19:08:45;101336.16;;;3.94;100.00
20444;BME280;10381;53.730;10.010;2023-04-26T19:12:46;101339.16;;;3.86;100.00
20444;BME280;10381;53.730;10.010;2023-04-26T19:16:47;101340.56;;;3.93;100.00
20444;BME280;10381;53.730;10.010;2023-04-26T19:20:47;101347.41;;;3.96;100.00
20444;BME280;10381;53.730;10.010;2023-04-26T19:24:48;101349.94;;;3.80;100.00
20444;BME280;10381;53.730;10.010;2023-04-26T19:28:49;101357.69;;;3.66;100.00
20444;BME280;10381;53.730;10.010;2023-04-26T19:32:49;101354.66;;;3.38;100.00
20444;BME280;10381;53.730;10.010;2023-04-26T19:36:49;101359.59;;;3.27;100.00
20444;BME280;10381;53.730;10.010;2023-04-26T19:40:51;101360.44;;;3.45;100.00
20444;BME280;10381;53.730;10.010;2023-04-26T19:44:52;101360.44;;;3.62;100.00
20444;BME280;10381;53.730;10.010;2023-04-26T19:48:52;101364.72;;;3.82;100.00
20444;BME280;10381;53.730;10.010;2023-04-26T19:52:52;101362.28;;;3.95;100.00
20444;BME280;10381;53.730;10.010;2023-04-26T19:56:53;101356.44;;;3.90;100.00
20444;BME280;10381;53.730;10.010;2023-04-26T20:00:53;101352.03;;;3.91;100.00
20444;BME280;10381;53.730;10.010;2023-04-26T20:04:53;101367.31;;;3.82;100.00
20444;BME280;10381;53.730;10.010;2023-04-26T20:08:53;101368.63;;;3.74;100.00
20444;BME280;10381;53.730;10.010;2023-04-26T20:12:54;101359.53;;;3.63;100.00
20444;BME280;10381;53.730;10.010;2023-04-26T20:16:54;101365.63;;;3.47;100.00
20444;BME280;10381;53.730;10.010;2023-04-26T20:20:54;101362.91;;;3.48;100.00
20444;BME280;10381;53.730;10.010;2023-04-26T20:24:55;101367.97;;;3.34;100.00
20444;BME280;10381;53.730;10.010;2023-04-26T20:28:55;101375.38;;;3.26;100.00
20444;BME280;10381;53.730;10.010;2023-04-26T20:32:55;101372.81;;;3.24;100.00
20444;BME280;10381;53.730;10.010;2023-04-26T20:36:55;101369.56;;;3.19;100.00
20444;BME280;10381;53.730;10.010;2023-04-26T20:40:56;101370.22;;;3.05;100.00
20444;BME280;10381;53.730;10.010;2023-04-26T20:44:56;101367.19;;;2.95;100.00
20444;BME280;10381;53.730;10.010;2023-04-26T20:48:56;101377.78;;;3.11;100.00
20444;BME280;10381;53.730;10.010;2023-04-26T20:52:57;101385.59;;;3.13;100.00